createdAt,value
2023-09-08T00:00:10.431Z,96342.75
2023-09-08T00:02:30.989Z,96336.56
2023-09-08T00:04:52.151Z,96348.56
2023-09-08T00:07:12.837Z,96346.81
2023-09-08T00:09:33.506Z,96348.13
2023-09-08T00:11:55.440Z,96343.84
2023-09-08T00:14:16.101Z,96344.88
2023-09-08T00:16:36.648Z,96349.72
2023-09-08T00:18:59.487Z,96340.13
2023-09-08T00:21:20.040Z,96340.59
2023-09-08T00:23:40.503Z,96350.72
2023-09-08T00:26:01.288Z,96344.13
2023-09-08T00:28:21.780Z,96338.59
2023-09-08T00:30:42.152Z,96345.19
2023-09-08T00:33:02.843Z,96341.88
2023-09-08T00:35:23.890Z,96347.72
2023-09-08T00:37:44.576Z,96340.38
2023-09-08T00:40:05.359Z,96343.16
2023-09-08T00:42:25.880Z,96346.69
2023-09-08T00:44:46.400Z,96351.50
2023-09-08T00:47:07.249Z,96338.03
2023-09-08T00:49:27.651Z,96342.31
2023-09-08T00:51:48.456Z,96341.78
2023-09-08T00:54:09.395Z,96344.56
2023-09-08T00:56:30.983Z,96338.22
2023-09-08T00:58:51.623Z,96335.16
2023-09-08T01:01:12.295Z,96332.66
2023-09-08T01:03:32.905Z,96331.13
2023-09-08T01:05:54.035Z,96340.19
2023-09-08T01:08:16.029Z,96333.81
2023-09-08T01:10:38.281Z,96339.63
2023-09-08T01:12:59.461Z,96347.19
2023-09-08T01:15:20.479Z,96335.53
2023-09-08T01:17:41.516Z,96329.69
2023-09-08T01:20:23.698Z,96333.13
2023-09-08T01:23:02.515Z,96342.25
2023-09-08T01:25:24.343Z,96341.69
2023-09-08T01:27:49.730Z,96336.09
2023-09-08T01:30:11.326Z,96342.81
2023-09-08T01:32:33.663Z,96338.22
2023-09-08T01:34:54.589Z,96339.28
2023-09-08T01:37:15.324Z,96342.03
2023-09-08T01:39:36.841Z,96328.63
2023-09-08T01:41:57.336Z,96333.72
2023-09-08T01:44:18.100Z,96338.00
2023-09-08T01:46:39.764Z,96337.00
2023-09-08T01:49:00.569Z,96328.16
2023-09-08T01:51:21.223Z,96325.88
2023-09-08T01:53:41.635Z,96323.56
2023-09-08T01:56:02.196Z,96321.31
2023-09-08T01:58:22.828Z,96320.28
2023-09-08T02:00:43.569Z,96321.03
2023-09-08T02:03:05.026Z,96318.50
2023-09-08T02:05:26.888Z,96319.59
2023-09-08T02:07:47.516Z,96313.78
2023-09-08T02:10:08.578Z,96314.84
2023-09-08T02:12:29.457Z,96310.28
2023-09-08T02:14:49.882Z,96309.72
2023-09-08T02:17:10.867Z,96318.56
2023-09-08T02:19:31.333Z,96305.66
2023-09-08T02:21:52.191Z,96308.75
2023-09-08T02:24:13.081Z,96312.78
2023-09-08T02:26:34.905Z,96314.44
2023-09-08T02:28:55.298Z,96323.16
2023-09-08T02:31:15.653Z,96319.94
2023-09-08T02:33:36.179Z,96327.28
2023-09-08T02:35:56.590Z,96323.25
2023-09-08T02:38:17.050Z,96314.06
2023-09-08T02:40:37.650Z,96324.44
2023-09-08T02:42:58.552Z,96326.66
2023-09-08T02:45:19.098Z,96327.19
2023-09-08T02:47:39.606Z,96325.69
2023-09-08T02:50:00.419Z,96326.88
2023-09-08T02:52:20.886Z,96325.78
2023-09-08T02:54:41.768Z,96315.13
2023-09-08T02:57:02.103Z,96330.84
2023-09-08T02:59:22.557Z,96333.63
2023-09-08T03:01:43.145Z,96325.34
2023-09-08T03:04:03.853Z,96333.47
2023-09-08T03:06:24.536Z,96323.06
2023-09-08T03:08:44.977Z,96336.84
2023-09-08T03:11:06.566Z,96333.28
2023-09-08T03:13:27.312Z,96330.19
2023-09-08T03:15:47.809Z,96330.63
2023-09-08T03:18:08.194Z,96331.88
2023-09-08T03:20:29.828Z,96332.34
2023-09-08T03:22:50.412Z,96316.47
2023-09-08T03:25:10.992Z,96317.97
2023-09-08T03:27:32.714Z,96320.22
2023-09-08T03:29:53.174Z,96323.19
2023-09-08T03:32:13.748Z,96320.63
2023-09-08T03:34:35.092Z,96320.09
2023-09-08T03:36:55.818Z,96301.72
2023-09-08T03:39:16.846Z,96329.09
2023-09-08T03:41:37.680Z,96322.59
2023-09-08T03:43:58.299Z,96331.88
2023-09-08T03:46:19.279Z,96328.13
2023-09-08T03:48:40.166Z,96327.44
2023-09-08T03:51:00.812Z,96327.44
2023-09-08T03:53:21.326Z,96324.31
2023-09-08T03:55:41.935Z,96326.25
2023-09-08T03:58:02.558Z,96323.22
2023-09-08T04:00:23.546Z,96318.16
2023-09-08T04:02:44.332Z,96318.91
2023-09-08T04:05:05.532Z,96314.81
2023-09-08T04:07:26.141Z,96323.44
2023-09-08T04:09:46.697Z,96322.88
2023-09-08T04:12:10.340Z,96323.44
2023-09-08T04:14:31.517Z,96320.94
2023-09-08T04:16:52.051Z,96323.50
2023-09-08T04:19:12.558Z,96330.75
2023-09-08T04:21:33.128Z,96336.78
2023-09-08T04:23:53.662Z,96334.19
2023-09-08T04:26:14.483Z,96336.50
2023-09-08T04:28:35.334Z,96331.50
2023-09-08T04:30:55.995Z,96341.38
2023-09-08T04:33:16.617Z,96326.28
2023-09-08T04:35:37.022Z,96322.72
2023-09-08T04:37:57.577Z,96322.25
2023-09-08T04:40:18.146Z,96329.88
2023-09-08T04:42:38.764Z,96318.44
2023-09-08T04:44:59.542Z,96331.44
2023-09-08T04:47:20.011Z,96321.94
2023-09-08T04:49:40.626Z,96330.97
2023-09-08T04:52:01.471Z,96330.56
2023-09-08T04:54:23.452Z,96334.47
2023-09-08T04:56:44.153Z,96337.72
2023-09-08T04:59:04.791Z,96333.56
2023-09-08T05:01:25.888Z,96335.22
2023-09-08T05:03:46.532Z,96334.88
2023-09-08T05:06:07.383Z,96337.28
2023-09-08T05:08:28.366Z,96342.03
2023-09-08T05:10:49.352Z,96338.97
2023-09-08T05:13:17.152Z,96344.44
2023-09-08T05:15:50.088Z,96346.53
2023-09-08T05:18:10.966Z,96349.38
2023-09-08T05:20:31.717Z,96343.34
2023-09-08T05:22:52.530Z,96356.88
2023-09-08T05:25:13.163Z,96356.56
2023-09-08T05:27:33.829Z,96343.75
2023-09-08T05:29:54.376Z,96347.44
2023-09-08T05:32:15.254Z,96351.50
2023-09-08T05:34:35.555Z,96349.00
2023-09-08T05:36:56.047Z,96356.66
2023-09-08T05:39:18.669Z,96359.97
2023-09-08T05:41:39.482Z,96358.31
2023-09-08T05:44:00.103Z,96358.09
2023-09-08T05:46:21.156Z,96366.69
2023-09-08T05:48:42.003Z,96366.47
2023-09-08T05:51:03.487Z,96360.94
2023-09-08T05:53:24.283Z,96359.91
2023-09-08T05:55:44.943Z,96371.06
2023-09-08T05:58:07.352Z,96364.81
2023-09-08T06:00:28.181Z,96366.53
2023-09-08T06:02:48.911Z,96371.63
2023-09-08T06:05:09.806Z,96365.19
2023-09-08T06:07:30.808Z,96367.53
2023-09-08T06:09:51.286Z,96370.84
2023-09-08T06:12:11.670Z,96352.34
2023-09-08T06:14:32.130Z,96370.53
2023-09-08T06:16:52.663Z,96372.59
2023-09-08T06:19:13.533Z,96373.19
2023-09-08T06:21:34.629Z,96378.81
2023-09-08T06:23:55.360Z,96375.31
2023-09-08T06:26:16.102Z,96372.31
2023-09-08T06:28:36.976Z,96384.34
2023-09-08T06:30:58.232Z,96376.03
2023-09-08T06:33:19.261Z,96375.28
2023-09-08T06:35:40.274Z,96374.66
2023-09-08T06:38:01.631Z,96371.19
2023-09-08T06:40:22.328Z,96367.94
2023-09-08T06:42:42.972Z,96371.53
2023-09-08T06:45:03.648Z,96367.81
2023-09-08T06:47:24.393Z,96374.94
2023-09-08T06:49:44.940Z,96362.81
2023-09-08T06:52:06.073Z,96371.69
2023-09-08T06:54:26.703Z,96369.94
2023-09-08T06:56:47.335Z,96369.72
2023-09-08T06:59:07.895Z,96377.59
2023-09-08T07:01:29.234Z,96376.31
2023-09-08T07:03:49.933Z,96374.31
2023-09-08T07:06:10.878Z,96377.31
2023-09-08T07:08:31.376Z,96382.09
2023-09-08T07:10:54.229Z,96385.94
2023-09-08T07:13:14.954Z,96380.34
2023-09-08T07:15:35.353Z,96382.00
2023-09-08T07:17:56.033Z,96381.38
2023-09-08T07:20:17.154Z,96371.28
2023-09-08T07:22:38.601Z,96373.31
2023-09-08T07:24:59.217Z,96378.63
2023-09-08T07:27:21.294Z,96385.47
2023-09-08T07:29:42.609Z,96383.44
2023-09-08T07:32:03.864Z,96387.75
2023-09-08T07:34:24.364Z,96376.06
2023-09-08T07:36:44.872Z,96378.13
2023-09-08T07:39:05.490Z,96376.84
2023-09-08T07:41:26.334Z,96381.88
2023-09-08T07:43:47.163Z,96382.19
2023-09-08T07:46:08.384Z,96388.03
2023-09-08T07:48:29.194Z,96374.41
2023-09-08T07:50:50.005Z,96375.63
2023-09-08T07:53:10.615Z,96367.88
2023-09-08T07:55:31.277Z,96375.47
2023-09-08T07:57:52.280Z,96373.03
2023-09-08T08:00:14.013Z,96375.53
2023-09-08T08:02:34.675Z,96387.09
2023-09-08T08:04:55.194Z,96372.84
2023-09-08T08:07:15.856Z,96379.28
2023-09-08T08:09:36.694Z,96381.41
2023-09-08T08:11:57.322Z,96383.53
2023-09-08T08:14:18.179Z,96385.72
2023-09-08T08:16:38.778Z,96384.50
2023-09-08T08:19:00.612Z,96379.13
2023-09-08T08:21:23.778Z,96369.53
2023-09-08T08:23:44.901Z,96378.03
2023-09-08T08:26:05.756Z,96377.50
2023-09-08T08:28:26.655Z,96374.25
2023-09-08T08:30:49.287Z,96376.66
2023-09-08T08:33:10.363Z,96375.97
2023-09-08T08:35:31.173Z,96376.47
2023-09-08T08:37:51.829Z,96372.91
2023-09-08T08:40:13.824Z,96366.59
2023-09-08T08:42:34.779Z,96371.78
2023-09-08T08:44:57.064Z,96374.63
2023-09-08T08:47:18.084Z,96369.53
2023-09-08T08:49:42.078Z,96368.97
2023-09-08T08:52:08.092Z,96363.88
2023-09-08T08:54:29.519Z,96363.31
2023-09-08T08:56:50.372Z,96372.47
2023-09-08T08:59:12.287Z,96358.97
2023-09-08T09:01:33.879Z,96354.53
2023-09-08T09:03:54.556Z,96365.25
2023-09-08T09:06:15.953Z,96358.16
2023-09-08T09:08:39.789Z,96353.63
2023-09-08T09:11:00.707Z,96360.66
2023-09-08T09:13:21.203Z,96360.59
2023-09-08T09:15:41.940Z,96364.22
2023-09-08T09:18:07.198Z,96359.81
2023-09-08T09:20:27.930Z,96355.75
2023-09-08T09:22:50.219Z,96353.88
2023-09-08T09:25:11.907Z,96347.66
2023-09-08T09:27:32.776Z,96350.75
2023-09-08T09:29:53.653Z,96358.06
2023-09-08T09:32:15.193Z,96351.38
2023-09-08T09:34:36.222Z,96355.75
2023-09-08T09:36:57.144Z,96355.63
2023-09-08T09:39:19.576Z,96351.47
2023-09-08T09:41:41.447Z,96345.50
2023-09-08T09:44:02.205Z,96349.03
2023-09-08T09:46:23.099Z,96351.16
2023-09-08T09:48:43.897Z,96347.63
2023-09-08T09:51:21.012Z,96342.03
2023-09-08T09:53:43.493Z,96348.69
2023-09-08T09:56:04.380Z,96335.28
2023-09-08T09:58:26.238Z,96337.22
2023-09-08T10:00:49.758Z,96337.50
2023-09-08T10:03:12.439Z,96335.16
2023-09-08T10:05:34.686Z,96328.72
2023-09-08T10:07:55.222Z,96339.69
2023-09-08T10:10:17.135Z,96329.06
2023-09-08T10:12:38.926Z,96333.44
2023-09-08T10:15:00.466Z,96339.13
2023-09-08T10:17:29.625Z,96340.41
2023-09-08T10:19:52.950Z,96335.44
2023-09-08T10:22:20.491Z,96349.06
2023-09-08T10:24:42.029Z,96349.63
2023-09-08T10:27:09.542Z,96337.56
2023-09-08T10:29:32.238Z,96338.84
2023-09-08T10:31:52.840Z,96335.09
2023-09-08T10:34:14.313Z,96334.84
2023-09-08T10:36:36.876Z,96327.44
2023-09-08T10:39:43.103Z,96329.69
2023-09-08T10:42:30.440Z,96330.66
2023-09-08T10:44:58.078Z,96330.81
2023-09-08T10:47:25.397Z,96331.63
2023-09-08T10:49:46.622Z,96329.28
2023-09-08T10:52:12.929Z,96330.63
2023-09-08T10:54:43.406Z,96330.66
2023-09-08T10:57:13.567Z,96325.38
2023-09-08T10:59:39.782Z,96331.56
2023-09-08T11:02:04.613Z,96323.31
2023-09-08T11:04:26.323Z,96320.25
2023-09-08T11:06:47.149Z,96312.94
2023-09-08T11:09:08.876Z,96327.56
2023-09-08T11:11:34.450Z,96317.94
2023-09-08T11:13:54.992Z,96333.75
2023-09-08T11:16:17.056Z,96334.28
2023-09-08T11:18:38.634Z,96325.66
2023-09-08T11:21:01.365Z,96329.91
2023-09-08T11:23:23.222Z,96329.84
2023-09-08T11:25:43.958Z,96324.25
2023-09-08T11:28:05.064Z,96327.81
2023-09-08T11:30:26.615Z,96328.59
2023-09-08T11:32:47.585Z,96321.19
2023-09-08T11:35:10.771Z,96327.06
2023-09-08T11:37:31.362Z,96328.03
2023-09-08T11:39:51.879Z,96327.16
2023-09-08T11:42:16.818Z,96327.25
2023-09-08T11:44:38.314Z,96324.31
2023-09-08T11:46:58.896Z,96329.22
2023-09-08T11:49:21.713Z,96324.59
2023-09-08T11:51:44.321Z,96325.84
2023-09-08T11:54:05.227Z,96319.28
2023-09-08T11:56:26.586Z,96321.94
2023-09-08T11:58:48.222Z,96311.38
2023-09-08T12:01:09.181Z,96312.13
2023-09-08T12:03:29.889Z,96315.50
2023-09-08T12:05:54.023Z,96316.81
2023-09-08T12:08:14.716Z,96319.13
2023-09-08T12:10:44.411Z,96312.31
2023-09-08T12:13:05.476Z,96302.88
2023-09-08T12:15:40.588Z,96313.81
2023-09-08T12:18:03.049Z,96308.06
2023-09-08T12:20:23.515Z,96308.56
2023-09-08T12:22:51.400Z,96312.34
2023-09-08T12:25:12.088Z,96313.66
2023-09-08T12:27:37.554Z,96301.03
2023-09-08T12:30:01.292Z,96308.28
2023-09-08T12:32:23.378Z,96291.94
2023-09-08T12:34:44.443Z,96301.50
2023-09-08T12:37:08.305Z,96306.69
2023-09-08T12:39:28.797Z,96307.78
2023-09-08T12:41:49.223Z,96309.06
2023-09-08T12:44:10.566Z,96299.78
2023-09-08T12:46:33.251Z,96297.72
2023-09-08T12:48:53.607Z,96295.13
2023-09-08T12:51:14.046Z,96285.97
2023-09-08T12:53:37.867Z,96283.66
2023-09-08T12:55:58.265Z,96288.53
2023-09-08T12:58:18.652Z,96281.09
2023-09-08T13:00:39.405Z,96274.50
2023-09-08T13:03:00.161Z,96281.25
2023-09-08T13:05:20.755Z,96286.66
2023-09-08T13:07:41.424Z,96277.59
2023-09-08T13:10:02.402Z,96278.94
2023-09-08T13:12:23.322Z,96283.28
2023-09-08T13:14:44.607Z,96273.28
2023-09-08T13:17:05.657Z,96277.81
2023-09-08T13:19:26.323Z,96270.28
2023-09-08T13:21:46.897Z,96262.56
2023-09-08T13:24:09.092Z,96276.31
2023-09-08T13:26:29.815Z,96272.88
2023-09-08T13:28:50.505Z,96270.78
2023-09-08T13:31:11.291Z,96264.94
2023-09-08T13:33:31.950Z,96266.19
2023-09-08T13:35:53.758Z,96256.81
2023-09-08T13:38:14.595Z,96264.53
2023-09-08T13:40:35.136Z,96253.53
2023-09-08T13:42:55.578Z,96255.44
2023-09-08T13:45:16.070Z,96249.63
2023-09-08T13:47:39.013Z,96259.03
2023-09-08T13:50:01.792Z,96253.53
2023-09-08T13:52:26.717Z,96243.03
2023-09-08T13:54:54.780Z,96241.38
2023-09-08T13:57:28.531Z,96236.94
2023-09-08T13:59:57.603Z,96243.97
2023-09-08T14:04:48.156Z,96238.91
2023-09-08T14:09:44.199Z,96235.59
2023-09-08T14:14:37.511Z,96221.28
2023-09-08T14:16:57.910Z,96226.00
2023-09-08T14:19:18.329Z,96225.81
2023-09-08T14:21:40.533Z,96222.66
2023-09-08T14:24:01.291Z,96227.97
2023-09-08T14:26:22.129Z,96220.91
2023-09-08T14:28:42.685Z,96224.53
2023-09-08T14:31:03.666Z,96219.75
2023-09-08T14:33:24.296Z,96225.94
2023-09-08T14:35:46.975Z,96216.47
2023-09-08T14:38:09.166Z,96219.81
2023-09-08T14:40:29.958Z,96225.19
2023-09-08T14:42:53.006Z,96220.28
2023-09-08T14:45:15.094Z,96221.59
2023-09-08T14:47:36.164Z,96224.91
2023-09-08T14:49:57.865Z,96228.28
2023-09-08T14:52:21.673Z,96222.72
2023-09-08T14:54:42.471Z,96223.59
2023-09-08T14:57:03.117Z,96227.06
2023-09-08T14:59:23.911Z,96226.59
2023-09-08T15:01:46.066Z,96225.66
2023-09-08T15:04:07.260Z,96223.09
2023-09-08T15:06:28.749Z,96222.59
2023-09-08T15:08:49.507Z,96221.19
2023-09-08T15:11:10.404Z,96225.16
2023-09-08T15:13:31.284Z,96219.00
2023-09-08T15:15:52.677Z,96219.72
2023-09-08T15:18:13.181Z,96225.16
2023-09-08T15:20:33.747Z,96214.88
2023-09-08T15:22:54.892Z,96216.94
2023-09-08T15:25:15.702Z,96214.84
2023-09-08T15:27:36.527Z,96220.41
2023-09-08T15:29:57.081Z,96219.34
2023-09-08T15:32:17.975Z,96222.34
2023-09-08T15:34:38.528Z,96214.84
2023-09-08T15:36:59.107Z,96221.84
2023-09-08T15:39:19.554Z,96229.44
2023-09-08T15:41:40.050Z,96221.00
2023-09-08T15:44:00.610Z,96214.75
2023-09-08T15:46:21.313Z,96224.31
2023-09-08T15:48:42.340Z,96221.53
2023-09-08T15:51:04.131Z,96217.50
2023-09-08T15:53:24.617Z,96211.94
2023-09-08T15:55:45.148Z,96218.34
2023-09-08T15:58:05.736Z,96217.66
2023-09-08T16:00:26.462Z,96215.88
2023-09-08T16:02:47.397Z,96213.19
2023-09-08T16:05:09.165Z,96218.91
2023-09-08T16:07:29.788Z,96212.44
2023-09-08T16:09:50.344Z,96210.16
2023-09-08T16:12:10.839Z,96206.94
2023-09-08T16:14:31.573Z,96207.47
2023-09-08T16:16:52.898Z,96208.88
2023-09-08T16:19:13.944Z,96203.81
2023-09-08T16:21:35.148Z,96220.38
2023-09-08T16:23:55.924Z,96224.72
2023-09-08T16:26:16.417Z,96208.88
2023-09-08T16:28:37.064Z,96211.50
2023-09-08T16:31:04.525Z,96218.38
2023-09-08T16:33:24.921Z,96219.91
2023-09-08T16:35:45.418Z,96219.00
2023-09-08T16:38:05.940Z,96220.94
2023-09-08T16:40:26.981Z,96220.44
2023-09-08T16:42:47.171Z,96222.47
2023-09-08T16:45:08.067Z,96216.47
2023-09-08T16:47:28.557Z,96218.38
2023-09-08T16:49:49.005Z,96215.22
2023-09-08T16:52:09.451Z,96227.47
2023-09-08T16:54:29.933Z,96198.28
2023-09-08T16:56:50.867Z,96218.25
2023-09-08T16:59:11.680Z,96216.91
2023-09-08T17:01:32.742Z,96224.09
2023-09-08T17:03:53.891Z,96206.91
2023-09-08T17:06:14.468Z,96220.25
2023-09-08T17:08:34.961Z,96219.75
2023-09-08T17:10:58.580Z,96223.16
2023-09-08T17:13:19.650Z,96222.59
2023-09-08T17:15:40.868Z,96223.16
2023-09-08T17:18:01.856Z,96219.56
2023-09-08T17:20:23.181Z,96221.47
2023-09-08T17:22:43.907Z,96221.09
2023-09-08T17:25:04.874Z,96218.66
2023-09-08T17:27:25.400Z,96223.41
2023-09-08T17:29:46.103Z,96224.06
2023-09-08T17:32:07.122Z,96228.38
2023-09-08T17:34:28.056Z,96224.78
2023-09-08T17:36:53.023Z,96229.31
2023-09-08T17:39:13.894Z,96235.34
2023-09-08T17:41:34.308Z,96229.31
2023-09-08T17:43:54.834Z,96233.66
2023-09-08T17:46:15.775Z,96238.16
2023-09-08T17:48:36.278Z,96240.41
2023-09-08T17:50:57.083Z,96238.91
2023-09-08T17:53:17.810Z,96240.22
2023-09-08T17:55:38.388Z,96239.81
2023-09-08T17:57:59.112Z,96237.16
2023-09-08T18:00:19.761Z,96233.56
2023-09-08T18:02:40.611Z,96238.63
2023-09-08T18:05:01.364Z,96236.34
2023-09-08T18:07:21.800Z,96242.91
2023-09-08T18:09:42.160Z,96232.13
2023-09-08T18:12:02.787Z,96242.28
2023-09-08T18:14:23.632Z,96243.13
2023-09-08T18:16:44.238Z,96238.53
2023-09-08T18:19:04.984Z,96249.75
2023-09-08T18:21:25.658Z,96246.16
2023-09-08T18:23:47.550Z,96251.50
2023-09-08T18:26:08.955Z,96245.53
2023-09-08T18:28:29.448Z,96232.94
2023-09-08T18:30:51.545Z,96246.03
2023-09-08T18:33:12.322Z,96244.94
2023-09-08T18:35:34.024Z,96247.09
2023-09-08T18:37:54.788Z,96252.13
2023-09-08T18:40:15.572Z,96243.81
2023-09-08T18:42:35.987Z,96261.47
2023-09-08T18:44:56.609Z,96248.91
2023-09-08T18:47:17.578Z,96254.88
2023-09-08T18:49:38.385Z,96253.88
2023-09-08T18:51:58.985Z,96255.53
2023-09-08T18:54:19.531Z,96252.66
2023-09-08T18:56:40.129Z,96258.59
2023-09-08T18:59:01.953Z,96255.84
2023-09-08T19:01:23.208Z,96253.59
2023-09-08T19:03:44.076Z,96259.75
2023-09-08T19:06:05.168Z,96259.25
2023-09-08T19:08:26.214Z,96257.59
2023-09-08T19:10:46.776Z,96251.16
2023-09-08T19:13:07.486Z,96252.50
2023-09-08T19:15:28.308Z,96253.69
2023-09-08T19:17:48.968Z,96258.09
2023-09-08T19:20:10.105Z,96263.38
2023-09-08T19:22:30.681Z,96264.44
2023-09-08T19:24:52.395Z,96260.16
2023-09-08T19:27:13.347Z,96261.88
2023-09-08T19:29:34.153Z,96270.09
2023-09-08T19:31:54.704Z,96259.81
2023-09-08T19:34:15.266Z,96261.66
2023-09-08T19:36:36.133Z,96260.09
2023-09-08T19:38:56.583Z,96258.38
2023-09-08T19:41:17.053Z,96259.91
2023-09-08T19:43:38.075Z,96254.69
2023-09-08T19:46:05.759Z,96258.91
2023-09-08T19:48:26.313Z,96252.97
2023-09-08T19:50:46.875Z,96264.41
2023-09-08T19:53:07.417Z,96256.19
2023-09-08T19:55:27.929Z,96252.50
2023-09-08T19:57:48.628Z,96258.25
2023-09-08T20:00:09.451Z,96252.41
2023-09-08T20:02:30.168Z,96253.06
2023-09-08T20:04:50.791Z,96253.81
2023-09-08T20:07:11.262Z,96262.56
2023-09-08T20:09:32.512Z,96258.69
2023-09-08T20:11:54.049Z,96256.09
2023-09-08T20:14:14.734Z,96259.44
2023-09-08T20:16:35.408Z,96256.41
2023-09-08T20:18:56.083Z,96246.38
2023-09-08T20:21:16.554Z,96256.72
2023-09-08T20:23:37.427Z,96250.41
2023-09-08T20:25:59.073Z,96256.25
2023-09-08T20:28:19.767Z,96256.25
2023-09-08T20:30:41.000Z,96257.53
2023-09-08T20:33:01.802Z,96256.56
2023-09-08T20:35:22.428Z,96264.00
2023-09-08T20:37:42.927Z,96256.53
2023-09-08T20:40:04.626Z,96257.16
2023-09-08T20:42:25.554Z,96265.69
2023-09-08T20:44:46.459Z,96254.00
2023-09-08T20:47:07.193Z,96259.28
2023-09-08T20:49:28.225Z,96261.00
2023-09-08T20:51:49.230Z,96259.94
2023-09-08T20:54:09.814Z,96253.34
2023-09-08T20:56:30.557Z,96254.09
2023-09-08T20:58:51.584Z,96256.31
2023-09-08T21:01:12.402Z,96244.66
2023-09-08T21:03:33.949Z,96257.63
2023-09-08T21:05:54.798Z,96251.88
2023-09-08T21:08:15.782Z,96252.78
2023-09-08T21:10:36.640Z,96254.94
2023-09-08T21:12:57.380Z,96257.47
2023-09-08T21:15:17.951Z,96255.22
2023-09-08T21:17:38.368Z,96261.09
2023-09-08T21:20:00.055Z,96257.03
2023-09-08T21:22:20.549Z,96258.59
2023-09-08T21:24:41.084Z,96258.91
2023-09-08T21:27:01.767Z,96255.56
2023-09-08T21:29:22.570Z,96264.50
2023-09-08T21:31:43.510Z,96259.53
2023-09-08T21:34:04.267Z,96253.16
2023-09-08T21:36:25.096Z,96251.41
2023-09-08T21:38:46.082Z,96246.13
2023-09-08T21:41:08.630Z,96249.22
2023-09-08T21:43:29.354Z,96249.75
2023-09-08T21:45:52.025Z,96247.06
2023-09-08T21:48:12.555Z,96243.81
2023-09-08T21:50:33.060Z,96253.50
2023-09-08T21:52:54.016Z,96248.19
2023-09-08T21:55:17.557Z,96249.13
2023-09-08T21:57:38.396Z,96254.09
2023-09-08T21:59:58.816Z,96249.03
2023-09-08T22:02:19.432Z,96260.28
2023-09-08T22:04:40.004Z,96258.75
2023-09-08T22:07:01.237Z,96254.44
2023-09-08T22:09:22.108Z,96258.97
2023-09-08T22:11:43.526Z,96251.53
2023-09-08T22:14:04.440Z,96250.25
2023-09-08T22:16:25.723Z,96246.44
2023-09-08T22:18:46.533Z,96242.38
2023-09-08T22:21:08.588Z,96238.16
2023-09-08T22:23:29.208Z,96243.31
2023-09-08T22:25:50.052Z,96247.31
2023-09-08T22:28:10.635Z,96242.56
2023-09-08T22:30:31.135Z,96245.88
2023-09-08T22:32:51.770Z,96238.75
2023-09-08T22:35:12.741Z,96240.81
2023-09-08T22:37:35.517Z,96248.75
2023-09-08T22:39:56.291Z,96244.50
2023-09-08T22:42:16.861Z,96247.81
2023-09-08T22:44:37.747Z,96247.88
2023-09-08T22:46:58.418Z,96246.72
2023-09-08T22:49:18.865Z,96243.69
2023-09-08T22:51:39.486Z,96235.41
2023-09-08T22:54:00.746Z,96249.78
2023-09-08T22:56:21.706Z,96243.19
2023-09-08T22:58:42.792Z,96246.34
2023-09-08T23:01:03.852Z,96250.69
2023-09-08T23:03:24.409Z,96242.84
2023-09-08T23:05:45.339Z,96236.81
2023-09-08T23:08:06.093Z,96243.91
2023-09-08T23:10:26.808Z,96242.69
2023-09-08T23:12:47.447Z,96243.50
2023-09-08T23:15:10.106Z,96239.22
2023-09-08T23:17:31.046Z,96229.81
2023-09-08T23:19:51.504Z,96236.47
2023-09-08T23:22:11.936Z,96236.75
2023-09-08T23:24:32.363Z,96231.22
2023-09-08T23:26:53.683Z,96224.59
2023-09-08T23:29:14.365Z,96229.41
2023-09-08T23:31:35.419Z,96224.34
2023-09-08T23:33:55.950Z,96231.50
2023-09-08T23:36:16.783Z,96228.69
2023-09-08T23:38:37.206Z,96231.78
2023-09-08T23:40:57.788Z,96229.75
2023-09-08T23:43:18.533Z,96236.09
2023-09-08T23:45:44.019Z,96234.06
2023-09-08T23:48:05.868Z,96229.97
2023-09-08T23:50:50.642Z,96231.03
2023-09-08T23:53:11.387Z,96222.34
2023-09-08T23:55:31.839Z,96216.25
2023-09-08T23:57:52.456Z,96223.69
